Time;durP1;ratioP1;P1;durP2;ratioP2;P2;SDS_P1;SDS_P2;PMS_P1;PMS_P2;Temp;Humidity;BMP_temperature;BMP_pressure;BME280_temperature;BME280_humidity;BME280_pressure;Samples;Min_cycle;Max_cycle;Signal;HPM_P1;HPM_P2
2023/05/25 00:01:42;;;;;;;23.10;6.73;;;17.50;99.90;;;;;;5071914;27;20172;-87
2023/05/25 00:04:10;;;;;;;26.47;6.90;;;17.50;99.90;;;;;;5090841;28;20177;-88
2023/05/25 00:06:39;;;;;;;24.93;7.03;;;17.50;99.90;;;;;;5093623;28;20173;-89
2023/05/25 00:09:06;;;;;;;24.27;6.23;;;17.50;99.90;;;;;;5089061;27;20290;-89
2023/05/25 00:11:33;;;;;;;22.67;6.43;;;17.40;99.90;;;;;;5104889;28;20181;-90
2023/05/25 00:13:59;;;;;;;25.83;6.67;;;17.40;99.90;;;;;;5112209;27;20185;-88
2023/05/25 00:16:25;;;;;;;27.27;7.27;;;17.40;99.90;;;;;;5092004;27;20807;-89
2023/05/25 00:18:56;;;;;;;23.63;6.87;;;17.50;99.90;;;;;;5091909;27;20183;-86
2023/05/25 00:21:26;;;;;;;19.53;6.20;;;17.50;99.90;;;;;;5088842;28;20617;-87
2023/05/25 00:23:52;;;;;;;24.37;6.93;;;17.40;99.90;;;;;;5075967;27;20272;-87
2023/05/25 00:26:18;;;;;;;24.60;6.63;;;17.30;99.90;;;;;;5074703;28;20193;-86
2023/05/25 00:28:47;;;;;;;31.83;7.27;;;17.30;99.90;;;;;;5073331;28;20189;-86
2023/05/25 00:31:14;;;;;;;18.53;6.90;;;17.40;99.90;;;;;;5086201;28;20186;-86
2023/05/25 00:33:40;;;;;;;28.97;8.03;;;17.40;99.90;;;;;;5091665;27;20194;-86
2023/05/25 00:36:07;;;;;;;23.00;7.30;;;17.30;99.90;;;;;;5085283;28;20209;-86
2023/05/25 00:38:33;;;;;;;21.10;6.60;;;17.30;99.90;;;;;;5070188;27;20212;-88
2023/05/25 00:41:00;;;;;;;18.80;6.17;;;17.30;99.90;;;;;;5112084;27;20229;-85
2023/05/25 00:43:26;;;;;;;18.80;6.33;;;17.20;99.90;;;;;;5073702;28;20265;-87
2023/05/25 00:45:53;;;;;;;19.97;6.10;;;17.20;99.90;;;;;;5074181;28;20177;-87
2023/05/25 00:48:20;;;;;;;18.23;6.27;;;17.20;99.90;;;;;;5070144;28;20527;-89
2023/05/25 00:50:46;;;;;;;23.43;6.37;;;17.10;99.90;;;;;;5071032;27;20269;-91
2023/05/25 00:53:14;;;;;;;19.57;6.43;;;17.10;99.90;;;;;;5070295;28;20655;-89
2023/05/25 00:56:09;;;;;;;24.70;6.23;;;17.10;99.90;;;;;;5079941;27;20255;-90
2023/05/25 00:58:41;;;;;;;22.13;6.93;;;17.10;99.90;;;;;;5090638;28;20189;-87
2023/05/25 01:01:12;;;;;;;19.40;6.20;;;17.10;99.90;;;;;;5090420;28;20231;-88
2023/05/25 01:03:44;;;;;;;20.60;6.23;;;17.10;99.90;;;;;;5093555;27;20288;-88
2023/05/25 01:06:16;;;;;;;23.13;6.20;;;17.10;99.90;;;;;;5081705;28;20465;-88
2023/05/25 01:08:51;;;;;;;20.33;6.43;;;17.00;99.90;;;;;;5092519;27;20184;-90
2023/05/25 01:11:25;;;;;;;29.60;6.67;;;17.00;99.90;;;;;;5072894;28;20279;-89
2023/05/25 01:13:53;;;;;;;21.93;6.90;;;17.00;99.90;;;;;;5087851;28;20184;-89
2023/05/25 01:16:24;;;;;;;19.47;6.40;;;17.10;99.90;;;;;;5119459;27;20256;-88
2023/05/25 01:18:52;;;;;;;25.90;6.60;;;17.00;99.90;;;;;;5083378;28;20272;-88
2023/05/25 01:21:44;;;;;;;29.20;6.87;;;17.00;99.90;;;;;;5087988;27;20182;-89
2023/05/25 01:24:32;;;;;;;19.73;6.37;;;17.00;99.90;;;;;;5091689;27;20196;-89
2023/05/25 01:27:31;;;;;;;28.33;6.53;;;17.00;99.90;;;;;;5108253;27;20192;-89
2023/05/25 01:30:01;;;;;;;22.23;6.10;;;17.00;99.90;;;;;;5082442;27;20186;-87
2023/05/25 01:32:31;;;;;;;22.13;7.23;;;17.00;99.90;;;;;;5108891;27;20676;-87
2023/05/25 01:35:00;;;;;;;25.77;6.20;;;17.00;99.90;;;;;;5074632;28;20808;-87
2023/05/25 01:37:28;;;;;;;19.97;5.67;;;16.90;99.90;;;;;;5101302;28;20212;-89
2023/05/25 01:39:54;;;;;;;19.77;6.63;;;16.90;99.90;;;;;;5070561;28;20734;-89
2023/05/25 01:42:20;;;;;;;27.60;7.30;;;16.80;99.90;;;;;;5102713;27;20223;-87
2023/05/25 01:44:47;;;;;;;29.37;6.73;;;16.80;99.90;;;;;;5074431;28;20181;-87
2023/05/25 01:47:31;;;;;;;20.40;6.40;;;16.70;99.90;;;;;;5088406;28;20246;-90
2023/05/25 01:50:26;;;;;;;23.13;6.53;;;16.70;99.90;;;;;;5072954;28;20185;-90
2023/05/25 01:53:08;;;;;;;16.93;6.60;;;16.70;99.90;;;;;;5114889;27;20338;-88
2023/05/25 01:56:02;;;;;;;23.07;6.70;;;16.70;99.90;;;;;;5104178;27;20189;-89
2023/05/25 01:58:37;;;;;;;20.70;6.27;;;16.60;99.90;;;;;;5086656;28;20401;-90
2023/05/25 02:01:04;;;;;;;25.03;6.67;;;16.70;99.90;;;;;;5070025;28;20356;-86
2023/05/25 02:03:30;;;;;;;24.40;7.10;;;16.70;99.90;;;;;;5072886;28;20627;-91
2023/05/25 02:05:57;;;;;;;24.83;7.20;;;16.70;99.90;;;;;;5085434;28;20190;-90
2023/05/25 02:08:24;;;;;;;22.60;6.50;;;16.60;99.90;;;;;;5124390;27;20589;-88
2023/05/25 02:10:50;;;;;;;24.60;7.13;;;16.70;99.90;;;;;;5089785;28;20476;-88
2023/05/25 02:13:16;;;;;;;18.07;6.63;;;16.60;99.90;;;;;;5073865;28;20185;-87
2023/05/25 02:15:43;;;;;;;15.80;6.60;;;16.60;99.90;;;;;;5086479;28;21601;-88
2023/05/25 02:18:09;;;;;;;22.60;6.20;;;16.60;99.90;;;;;;5077437;28;20181;-90
2023/05/25 02:20:36;;;;;;;21.40;6.47;;;16.60;99.90;;;;;;5102722;28;20181;-90
2023/05/25 02:23:02;;;;;;;18.37;6.10;;;16.60;99.90;;;;;;5069215;28;20516;-88
2023/05/25 02:25:29;;;;;;;19.37;6.60;;;16.60;99.90;;;;;;5101337;28;20189;-87
2023/05/25 02:27:57;;;;;;;23.87;6.43;;;16.60;99.90;;;;;;5088617;28;20250;-88
2023/05/25 02:30:24;;;;;;;27.47;7.10;;;16.60;99.90;;;;;;5062552;28;20621;-88
2023/05/25 02:32:50;;;;;;;22.17;6.10;;;16.50;99.90;;;;;;5072742;28;20508;-87
2023/05/25 02:35:17;;;;;;;28.00;6.50;;;16.60;99.90;;;;;;5075334;28;20181;-89
2023/05/25 02:37:43;;;;;;;17.97;6.57;;;16.60;99.90;;;;;;5085379;28;20209;-85
2023/05/25 02:40:10;;;;;;;20.70;7.17;;;16.50;99.90;;;;;;5070671;28;20655;-89
2023/05/25 02:42:40;;;;;;;29.43;7.83;;;16.50;99.90;;;;;;5086897;28;20193;-88
2023/05/25 02:45:10;;;;;;;27.13;7.37;;;16.50;99.90;;;;;;5067780;28;20205;-88
2023/05/25 02:47:36;;;;;;;21.97;7.40;;;16.50;99.90;;;;;;5085394;28;20211;-88
2023/05/25 02:50:06;;;;;;;27.80;6.90;;;16.50;99.90;;;;;;5086520;28;20197;-89
2023/05/25 02:52:32;;;;;;;26.03;7.20;;;16.60;99.90;;;;;;5069973;28;20182;-84
2023/05/25 02:54:58;;;;;;;20.17;7.10;;;16.60;99.90;;;;;;5093162;28;20182;-87
2023/05/25 02:57:25;;;;;;;20.57;6.63;;;16.60;99.90;;;;;;5106841;28;20213;-89
2023/05/25 02:59:53;;;;;;;22.90;6.87;;;16.70;99.90;;;;;;5088932;28;20208;-88
2023/05/25 03:02:24;;;;;;;24.13;6.60;;;16.70;99.90;;;;;;5084762;28;20205;-89
2023/05/25 03:04:52;;;;;;;25.80;7.23;;;16.70;99.90;;;;;;5097402;28;20185;-90
2023/05/25 03:07:20;;;;;;;21.03;6.90;;;16.70;99.90;;;;;;5086781;28;20194;-89
2023/05/25 03:09:46;;;;;;;20.43;6.93;;;16.70;99.90;;;;;;5085703;28;20201;-87
2023/05/25 03:12:13;;;;;;;22.60;7.10;;;16.70;99.90;;;;;;5112865;27;20189;-89
2023/05/25 03:14:45;;;;;;;22.57;6.90;;;16.60;99.90;;;;;;5069732;28;20185;-89
2023/05/25 03:17:14;;;;;;;24.27;7.30;;;16.70;99.90;;;;;;5062308;28;20231;-89
2023/05/25 03:19:41;;;;;;;21.73;6.50;;;16.60;99.90;;;;;;5102797;28;20580;-90
2023/05/25 03:22:10;;;;;;;26.60;7.33;;;16.60;99.90;;;;;;5086947;28;20189;-89
2023/05/25 03:24:40;;;;;;;19.00;6.50;;;16.60;99.90;;;;;;5076224;28;20180;-87
2023/05/25 03:27:07;;;;;;;29.80;7.87;;;16.70;99.90;;;;;;5091252;28;20200;-88
2023/05/25 03:29:34;;;;;;;29.17;6.70;;;16.70;99.90;;;;;;5090163;27;20189;-86
2023/05/25 03:32:04;;;;;;;24.77;7.43;;;16.70;99.90;;;;;;5100204;27;20649;-86
2023/05/25 03:34:33;;;;;;;17.97;6.57;;;16.70;99.90;;;;;;5092327;28;20227;-87
2023/05/25 03:37:01;;;;;;;21.93;7.10;;;16.70;99.90;;;;;;5121579;27;20209;-87
2023/05/25 03:39:27;;;;;;;21.23;6.60;;;16.70;99.90;;;;;;5090435;27;20196;-89
2023/05/25 03:41:54;;;;;;;25.50;6.83;;;16.70;99.90;;;;;;5089371;28;20604;-89
2023/05/25 03:44:21;;;;;;;30.67;7.47;;;16.70;99.90;;;;;;5088264;27;20182;-87
2023/05/25 03:46:47;;;;;;;20.50;6.83;;;16.80;99.90;;;;;;5074834;27;20234;-86
2023/05/25 03:49:14;;;;;;;25.57;7.40;;;16.80;99.90;;;;;;5091032;28;20204;-86
2023/05/25 03:51:42;;;;;;;25.77;7.47;;;16.80;99.90;;;;;;5069129;27;20304;-89
2023/05/25 03:54:09;;;;;;;21.57;7.07;;;16.80;99.90;;;;;;5119207;27;20352;-87
2023/05/25 03:56:35;;;;;;;27.53;6.57;;;16.90;99.90;;;;;;5095289;28;20264;-87
2023/05/25 03:59:06;;;;;;;22.90;6.60;;;16.90;99.90;;;;;;5075964;28;20195;-88
2023/05/25 04:01:32;;;;;;;27.93;6.97;;;16.90;99.90;;;;;;5102538;27;20181;-87
2023/05/25 04:03:59;;;;;;;22.30;7.43;;;16.90;99.90;;;;;;5063873;28;20190;-88
2023/05/25 04:06:25;;;;;;;23.47;6.57;;;17.00;99.90;;;;;;5067063;28;20189;-89
2023/05/25 04:08:52;;;;;;;22.40;7.70;;;17.00;99.90;;;;;;5070454;28;20606;-89
2023/05/25 04:11:19;;;;;;;20.97;7.00;;;17.10;99.90;;;;;;5063233;27;20189;-87
2023/05/25 04:13:46;;;;;;;20.33;7.50;;;17.10;99.90;;;;;;5077022;27;20268;-88
2023/05/25 04:16:16;;;;;;;29.20;7.73;;;17.10;99.90;;;;;;5096637;28;20236;-87
2023/05/25 04:18:42;;;;;;;22.40;8.17;;;17.20;99.90;;;;;;5107954;27;20192;-88
2023/05/25 04:21:09;;;;;;;25.00;8.00;;;17.30;99.90;;;;;;5103781;27;20723;-86
2023/05/25 04:23:35;;;;;;;24.50;8.17;;;17.30;99.90;;;;;;5103218;28;20251;-87
2023/05/25 04:26:02;;;;;;;23.10;8.27;;;17.30;99.90;;;;;;5078511;27;20197;-87
2023/05/25 04:28:29;;;;;;;35.53;8.53;;;17.40;99.90;;;;;;5071580;27;20272;-85
2023/05/25 04:30:56;;;;;;;26.30;7.90;;;17.50;99.90;;;;;;5099100;27;20185;-85
2023/05/25 04:33:23;;;;;;;29.30;8.13;;;17.60;99.90;;;;;;5087581;28;20800;-85
2023/05/25 04:35:50;;;;;;;21.30;7.10;;;17.60;99.90;;;;;;5075042;27;20217;-86
2023/05/25 04:38:16;;;;;;;25.63;7.87;;;17.70;99.90;;;;;;5116643;27;20193;-84
2023/05/25 04:40:46;;;;;;;23.83;7.80;;;17.70;99.90;;;;;;5101058;27;20659;-84
2023/05/25 04:43:17;;;;;;;34.37;8.43;;;17.80;99.90;;;;;;5100547;28;20186;-87
2023/05/25 04:45:44;;;;;;;23.03;7.60;;;17.90;99.90;;;;;;5071606;28;20279;-84
2023/05/25 04:48:12;;;;;;;29.30;7.83;;;17.90;99.90;;;;;;5101787;27;20185;-87
2023/05/25 04:50:41;;;;;;;20.63;7.13;;;18.00;99.90;;;;;;5071242;28;20189;-88
2023/05/25 04:53:08;;;;;;;19.97;7.00;;;18.00;99.90;;;;;;5088582;27;20193;-86
2023/05/25 04:55:35;;;;;;;27.60;7.10;;;18.10;99.90;;;;;;5071720;28;20236;-87
2023/05/25 04:58:04;;;;;;;24.10;6.80;;;18.10;99.90;;;;;;5108656;27;20212;-85
2023/05/25 05:00:33;;;;;;;28.80;7.10;;;18.10;99.90;;;;;;5092004;28;20194;-88
2023/05/25 05:02:59;;;;;;;22.07;6.53;;;18.10;99.90;;;;;;5080575;28;20214;-88
2023/05/25 05:05:26;;;;;;;27.47;7.30;;;18.10;99.90;;;;;;5086783;28;20627;-89
2023/05/25 05:07:53;;;;;;;25.57;6.97;;;18.20;99.90;;;;;;5081945;28;20272;-85
2023/05/25 05:10:20;;;;;;;15.83;6.47;;;18.20;99.90;;;;;;5103362;27;20537;-85
2023/05/25 05:12:47;;;;;;;27.27;6.53;;;18.20;99.90;;;;;;5106300;27;20185;-87
2023/05/25 05:15:14;;;;;;;27.43;6.87;;;18.20;99.90;;;;;;5092847;28;20240;-86
2023/05/25 05:17:40;;;;;;;23.10;6.60;;;18.20;99.90;;;;;;5090061;27;20234;-88
2023/05/25 05:20:08;;;;;;;18.73;6.30;;;18.30;99.90;;;;;;5100016;28;20543;-87
2023/05/25 05:22:36;;;;;;;27.00;6.83;;;18.30;99.90;;;;;;5068748;28;20186;-88
2023/05/25 05:25:03;;;;;;;18.07;5.97;;;18.30;99.90;;;;;;5085523;28;20193;-88
2023/05/25 05:27:29;;;;;;;16.63;5.90;;;18.30;99.90;;;;;;5089306;28;20737;-86
2023/05/25 05:29:58;;;;;;;21.10;6.43;;;18.30;99.90;;;;;;5073058;27;20873;-88
2023/05/25 05:32:24;;;;;;;23.43;6.03;;;18.30;99.90;;;;;;5103602;27;20283;-86
2023/05/25 05:34:51;;;;;;;21.10;5.53;;;18.40;99.90;;;;;;5085446;28;20186;-87
2023/05/25 05:37:17;;;;;;;25.20;6.67;;;18.40;99.90;;;;;;5082934;28;20276;-89
2023/05/25 05:39:44;;;;;;;24.53;6.30;;;18.40;99.90;;;;;;5092833;27;20193;-94
2023/05/25 05:42:10;;;;;;;25.00;6.20;;;18.50;99.90;;;;;;5092326;28;20259;-87
2023/05/25 05:44:40;;;;;;;24.23;6.10;;;18.50;99.90;;;;;;5069340;27;20345;-93
2023/05/25 05:47:09;;;;;;;25.17;6.47;;;18.50;99.90;;;;;;5066183;28;20194;-86
2023/05/25 05:49:38;;;;;;;18.37;5.87;;;18.50;99.90;;;;;;5117281;27;20627;-87
2023/05/25 05:52:05;;;;;;;18.57;6.10;;;18.60;99.90;;;;;;5119520;27;20673;-87
2023/05/25 05:54:31;;;;;;;22.67;6.23;;;18.60;99.90;;;;;;5100774;28;20640;-88
2023/05/25 05:56:58;;;;;;;22.87;6.23;;;18.70;99.90;;;;;;5118367;27;20206;-89
2023/05/25 05:59:25;;;;;;;18.77;5.73;;;18.70;99.90;;;;;;5081649;28;20213;-86
2023/05/25 06:01:52;;;;;;;19.10;6.13;;;18.70;99.90;;;;;;5089848;28;20264;-86
2023/05/25 06:04:18;;;;;;;24.90;5.97;;;18.80;99.90;;;;;;5074048;27;20231;-87
2023/05/25 06:06:45;;;;;;;16.57;5.07;;;18.80;99.90;;;;;;5089806;28;20181;-88
2023/05/25 06:09:12;;;;;;;22.10;5.93;;;18.80;99.90;;;;;;5099723;28;20276;-88
2023/05/25 06:11:39;;;;;;;22.00;5.60;;;18.80;99.90;;;;;;5069121;28;20197;-86
2023/05/25 06:14:06;;;;;;;15.33;5.00;;;18.80;99.90;;;;;;5079302;27;20849;-84
2023/05/25 06:16:33;;;;;;;21.23;5.23;;;18.90;99.90;;;;;;5073047;28;20220;-86
2023/05/25 06:19:00;;;;;;;21.40;5.57;;;18.90;99.90;;;;;;5116139;27;20193;-84
2023/05/25 06:21:26;;;;;;;17.60;5.10;;;19.00;99.90;;;;;;5082906;28;20905;-85
2023/05/25 06:23:52;;;;;;;19.27;5.20;;;19.00;99.90;;;;;;5117104;28;20178;-90
2023/05/25 06:26:19;;;;;;;22.20;6.13;;;19.10;99.90;;;;;;5068286;28;20198;-88
2023/05/25 06:28:46;;;;;;;20.07;5.23;;;19.10;99.90;;;;;;5070531;28;20575;-89
2023/05/25 06:31:12;;;;;;;22.53;5.60;;;19.20;99.90;;;;;;5088689;28;20249;-83
2023/05/25 06:33:39;;;;;;;19.93;5.70;;;19.30;99.90;;;;;;5116224;28;20193;-84
2023/05/25 06:36:06;;;;;;;23.40;5.93;;;19.30;99.90;;;;;;5110339;28;20208;-85
2023/05/25 06:38:34;;;;;;;23.47;4.70;;;19.40;99.90;;;;;;5065846;28;20204;-86
2023/05/25 06:41:02;;;;;;;20.80;6.13;;;19.40;99.90;;;;;;5117989;28;20301;-88
2023/05/25 06:43:30;;;;;;;22.60;5.70;;;19.50;99.90;;;;;;5105213;28;20182;-89
2023/05/25 06:45:58;;;;;;;21.43;6.03;;;19.50;99.90;;;;;;5072226;28;20374;-88
2023/05/25 06:48:27;;;;;;;20.63;5.27;;;19.60;99.90;;;;;;5077915;28;20268;-89
2023/05/25 06:50:53;;;;;;;19.53;5.20;;;19.60;99.90;;;;;;5087106;28;20186;-91
2023/05/25 06:53:21;;;;;;;17.00;4.80;;;19.60;99.90;;;;;;5087196;28;20193;-87
2023/05/25 06:55:48;;;;;;;22.17;5.50;;;19.70;99.90;;;;;;5085366;28;20181;-92
2023/05/25 06:58:14;;;;;;;22.17;5.50;;;19.70;99.90;;;;;;5070569;28;20196;-89
2023/05/25 07:00:41;;;;;;;20.43;5.37;;;19.80;99.90;;;;;;5102234;27;20185;-91
2023/05/25 07:03:07;;;;;;;25.67;5.13;;;19.80;99.90;;;;;;5068043;28;20870;-89
2023/05/25 07:05:42;;;;;;;19.47;4.83;;;19.90;99.90;;;;;;5070257;27;20177;-90
2023/05/25 07:08:09;;;;;;;22.77;5.37;;;20.00;99.90;;;;;;5090071;28;20196;-90
2023/05/25 07:10:37;;;;;;;21.87;5.10;;;20.10;99.90;;;;;;5102168;27;20647;-86
2023/05/25 07:13:06;;;;;;;21.33;5.30;;;20.10;99.90;;;;;;5105842;27;20181;-88
2023/05/25 07:15:33;;;;;;;18.37;5.63;;;20.10;99.90;;;;;;5090488;28;20240;-88
2023/05/25 07:17:59;;;;;;;21.00;4.87;;;20.20;99.90;;;;;;5091894;28;20205;-88
2023/05/25 07:20:26;;;;;;;17.97;4.93;;;20.20;99.90;;;;;;5073751;27;20281;-90
2023/05/25 07:22:53;;;;;;;16.97;4.57;;;20.30;99.90;;;;;;5069961;27;20213;-91
2023/05/25 07:25:20;;;;;;;20.70;4.97;;;20.30;99.90;;;;;;5093489;28;20809;-88
2023/05/25 07:27:53;;;;;;;15.30;4.73;;;20.40;99.90;;;;;;5095070;28;20505;-82
2023/05/25 07:30:20;;;;;;;15.37;4.60;;;20.40;99.90;;;;;;5076423;28;20194;-89
2023/05/25 07:32:47;;;;;;;18.93;5.00;;;20.50;99.90;;;;;;5092306;28;20170;-86
2023/05/25 07:35:13;;;;;;;14.13;4.83;;;20.50;99.90;;;;;;5106481;28;20188;-88
2023/05/25 07:37:40;;;;;;;18.30;5.13;;;20.60;99.90;;;;;;5101057;27;20238;-87
2023/05/25 07:40:07;;;;;;;19.77;5.60;;;20.70;99.90;;;;;;5085788;28;20191;-88
2023/05/25 07:42:34;;;;;;;16.87;5.03;;;20.70;99.90;;;;;;5079032;28;20204;-85
2023/05/25 07:45:02;;;;;;;17.20;5.10;;;20.80;99.90;;;;;;5068607;28;20291;-88
2023/05/25 07:47:29;;;;;;;20.10;4.73;;;20.90;99.90;;;;;;5073751;27;20209;-85
2023/05/25 07:49:56;;;;;;;17.10;5.00;;;20.90;99.90;;;;;;5095331;28;20259;-85
2023/05/25 07:52:23;;;;;;;17.80;4.77;;;20.90;99.90;;;;;;5091463;28;20216;-84
2023/05/25 07:54:49;;;;;;;19.23;4.87;;;21.00;99.90;;;;;;5081714;28;20433;-85
2023/05/25 07:57:17;;;;;;;21.00;4.97;;;21.10;99.90;;;;;;5073389;28;20213;-89
2023/05/25 07:59:44;;;;;;;12.03;4.97;;;21.10;99.90;;;;;;5133382;27;20174;-90
2023/05/25 08:02:10;;;;;;;22.60;4.93;;;21.20;99.90;;;;;;5104555;28;20256;-86
2023/05/25 08:04:36;;;;;;;15.17;4.97;;;21.20;99.90;;;;;;5076369;28;20182;-85
2023/05/25 08:07:03;;;;;;;13.17;4.70;;;21.30;99.90;;;;;;5116086;27;20196;-90
2023/05/25 08:09:30;;;;;;;12.67;4.17;;;21.40;99.90;;;;;;5065625;28;20194;-86
2023/05/25 08:11:56;;;;;;;18.33;4.87;;;21.40;99.90;;;;;;5085588;28;20308;-88
2023/05/25 08:14:26;;;;;;;22.02;5.32;;;21.50;99.90;;;;;;5110290;27;20300;-90
2023/05/25 08:16:53;;;;;;;17.87;4.73;;;21.50;99.90;;;;;;5075243;28;20225;-87
2023/05/25 08:19:19;;;;;;;17.45;4.30;;;21.60;99.90;;;;;;5107585;28;20192;-83
2023/05/25 08:21:46;;;;;;;13.93;4.73;;;21.60;99.90;;;;;;5065578;28;20181;-85
2023/05/25 08:24:13;;;;;;;19.02;5.10;;;21.70;99.90;;;;;;5107955;27;20180;-85
2023/05/25 08:26:40;;;;;;;16.35;4.32;;;21.80;99.90;;;;;;5085265;28;20210;-85
2023/05/25 08:29:07;;;;;;;21.00;5.07;;;21.80;99.90;;;;;;5071867;28;20247;-85
2023/05/25 08:31:34;;;;;;;18.98;4.45;;;21.80;99.90;;;;;;5082251;28;20186;-84
2023/05/25 08:34:01;;;;;;;19.48;5.03;;;21.90;99.90;;;;;;5069187;27;20215;-83
2023/05/25 08:36:34;;;;;;;19.20;4.07;;;21.90;99.90;;;;;;5087899;28;20209;-83
2023/05/25 08:39:02;;;;;;;17.15;4.63;;;21.90;99.90;;;;;;5086997;28;20181;-88
2023/05/25 08:41:29;;;;;;;14.43;4.33;;;22.00;99.90;;;;;;5068585;28;20213;-86
2023/05/25 08:43:56;;;;;;;20.37;4.63;;;22.00;99.90;;;;;;5062982;28;20651;-88
2023/05/25 08:46:30;;;;;;;13.40;4.30;;;22.10;99.90;;;;;;5068594;28;20189;-84
2023/05/25 08:49:08;;;;;;;17.45;5.10;;;22.20;99.90;;;;;;5071859;28;20263;-84
2023/05/25 08:51:54;;;;;;;10.57;4.47;;;22.20;99.90;;;;;;5069400;27;20402;-84
2023/05/25 08:54:35;;;;;;;14.32;3.88;;;22.30;99.90;;;;;;5065662;28;20189;-89
2023/05/25 08:57:16;;;;;;;14.45;4.30;;;22.30;99.90;;;;;;5068865;28;20201;-88
2023/05/25 08:59:59;;;;;;;16.20;4.80;;;22.40;99.90;;;;;;5107878;27;20185;-84
2023/05/25 09:02:50;;;;;;;16.38;3.92;;;22.50;99.90;;;;;;5066481;28;20213;-85
2023/05/25 09:05:20;;;;;;;11.70;3.97;;;22.50;99.90;;;;;;5090788;28;20216;-86
2023/05/25 09:07:48;;;;;;;16.55;3.92;;;22.60;99.90;;;;;;5105484;27;20619;-87
2023/05/25 09:10:16;;;;;;;14.25;4.40;;;22.60;99.90;;;;;;5072807;28;20196;-88
2023/05/25 09:12:43;;;;;;;20.35;4.47;;;22.70;99.90;;;;;;5098799;28;20178;-83
2023/05/25 09:15:12;;;;;;;12.02;4.07;;;22.80;99.90;;;;;;5125287;27;20198;-87
2023/05/25 09:17:40;;;;;;;19.27;4.03;;;22.90;99.90;;;;;;5073358;27;20821;-87
2023/05/25 09:20:12;;;;;;;17.75;4.60;;;22.90;99.90;;;;;;5069011;28;20190;-89
2023/05/25 09:22:43;;;;;;;14.80;3.95;;;23.00;99.90;;;;;;5112295;27;20185;-88
2023/05/25 09:25:12;;;;;;;16.92;4.50;;;23.10;99.90;;;;;;5090031;28;20190;-88
2023/05/25 09:27:38;;;;;;;17.63;4.10;;;23.20;99.90;;;;;;5092531;28;20197;-84
2023/05/25 09:30:06;;;;;;;15.88;4.80;;;23.30;99.90;;;;;;5083240;28;20177;-87
2023/05/25 09:32:35;;;;;;;13.30;4.35;;;23.30;99.90;;;;;;5108044;27;20417;-93
2023/05/25 09:35:14;;;;;;;14.35;4.40;;;23.50;99.90;;;;;;5070481;28;20186;-88
2023/05/25 09:37:42;;;;;;;12.93;4.00;;;23.60;99.90;;;;;;5085213;28;20733;-86
2023/05/25 09:40:11;;;;;;;17.33;4.10;;;23.50;99.90;;;;;;5084927;28;20204;-89
2023/05/25 09:42:38;;;;;;;13.68;4.13;;;23.50;99.90;;;;;;5085984;28;20181;-87
2023/05/25 09:45:05;;;;;;;19.13;4.50;;;23.60;99.90;;;;;;5079406;28;20525;-87
2023/05/25 09:47:32;;;;;;;18.02;4.25;;;23.60;99.90;;;;;;5066723;28;20251;-90
2023/05/25 09:49:59;;;;;;;13.93;3.97;;;23.80;99.90;;;;;;5082323;28;20178;-87
2023/05/25 09:52:26;;;;;;;15.35;4.00;;;23.80;99.90;;;;;;5103019;28;20326;-90
2023/05/25 09:54:53;;;;;;;14.60;4.18;;;23.80;99.90;;;;;;5069949;28;20192;-86
2023/05/25 09:57:23;;;;;;;13.70;3.97;;;23.80;99.90;;;;;;5084317;28;20221;-88
2023/05/25 09:59:49;;;;;;;12.30;3.88;;;23.90;99.90;;;;;;5089613;28;20685;-85
2023/05/25 10:02:16;;;;;;;10.20;3.80;;;24.00;99.90;;;;;;5102234;28;20217;-88
2023/05/25 10:04:42;;;;;;;14.60;3.88;;;24.00;99.90;;;;;;5082641;28;20185;-85
2023/05/25 10:07:09;;;;;;;12.13;4.05;;;24.10;99.90;;;;;;5120679;27;20284;-86
2023/05/25 10:09:42;;;;;;;12.00;3.85;;;24.00;99.90;;;;;;5090138;28;20228;-92
2023/05/25 10:12:14;;;;;;;18.50;4.40;;;24.00;99.90;;;;;;5101247;28;20194;-90
2023/05/25 10:14:45;;;;;;;15.00;4.22;;;24.00;99.90;;;;;;5115865;28;20193;-89
2023/05/25 10:17:17;;;;;;;17.77;4.25;;;24.00;99.90;;;;;;5064336;28;20225;-84
2023/05/25 10:19:59;;;;;;;18.15;4.18;;;24.00;99.90;;;;;;5084728;28;20653;-87
2023/05/25 10:22:59;;;;;;;15.55;4.07;;;24.00;99.90;;;;;;5101542;28;20185;-87
2023/05/25 10:25:42;;;;;;;19.33;4.18;;;23.90;99.90;;;;;;5119152;28;20572;-89
2023/05/25 10:28:33;;;;;;;17.13;4.03;;;23.80;99.90;;;;;;5079885;28;20702;-86
2023/05/25 10:31:00;;;;;;;18.83;4.20;;;23.80;99.90;;;;;;5080439;28;20201;-88
2023/05/25 10:33:28;;;;;;;15.60;3.97;;;23.90;99.90;;;;;;5101505;28;20182;-86
2023/05/25 10:35:56;;;;;;;10.73;4.10;;;23.90;99.90;;;;;;5073857;28;20674;-87
2023/05/25 10:38:27;;;;;;;13.05;3.50;;;23.90;99.90;;;;;;5071103;28;20259;-91
2023/05/25 10:40:58;;;;;;;20.88;3.97;;;23.90;99.90;;;;;;5122642;27;20177;-90
2023/05/25 10:43:26;;;;;;;16.88;3.92;;;23.80;99.90;;;;;;5107148;27;20584;-89
2023/05/25 10:45:58;;;;;;;15.95;4.03;;;23.70;99.90;;;;;;5107338;28;20181;-86
2023/05/25 10:48:36;;;;;;;15.52;3.65;;;23.60;99.90;;;;;;5107378;28;20272;-90
2023/05/25 10:51:03;;;;;;;14.07;3.70;;;23.60;99.90;;;;;;5084594;28;20284;-88
2023/05/25 10:53:30;;;;;;;19.73;4.22;;;23.60;99.90;;;;;;5105797;27;20186;-90
2023/05/25 10:56:03;;;;;;;16.50;4.00;;;23.60;99.90;;;;;;5084274;28;20300;-89
2023/05/25 10:58:31;;;;;;;19.50;4.38;;;23.60;99.90;;;;;;5086343;28;20184;-86
2023/05/25 11:01:01;;;;;;;14.25;3.67;;;23.50;99.90;;;;;;5072603;28;20268;-94
2023/05/25 11:03:43;;;;;;;10.23;3.55;;;23.40;99.90;;;;;;5106695;28;20184;-86
2023/05/25 11:06:17;;;;;;;10.95;3.53;;;23.40;99.90;;;;;;5070258;28;20181;-88
2023/05/25 11:09:03;;;;;;;14.27;3.97;;;23.40;99.90;;;;;;5081268;28;20274;-87
2023/05/25 11:11:51;;;;;;;17.13;3.97;;;23.40;99.90;;;;;;5092852;28;20746;-86
2023/05/25 11:14:29;;;;;;;13.93;4.10;;;23.30;99.90;;;;;;5055726;28;20720;-88
2023/05/25 11:17:17;;;;;;;14.70;3.60;;;23.30;99.90;;;;;;5071555;28;20213;-84
2023/05/25 11:19:54;;;;;;;17.08;3.80;;;23.30;99.90;;;;;;5122424;27;20186;-85
2023/05/25 11:22:32;;;;;;;17.90;4.05;;;23.30;99.90;;;;;;5091354;28;20181;-87
2023/05/25 11:25:01;;;;;;;18.13;3.88;;;23.30;99.90;;;;;;5110256;27;20204;-89
2023/05/25 11:27:30;;;;;;;15.43;3.58;;;23.30;99.90;;;;;;5091525;28;20201;-86
2023/05/25 11:29:58;;;;;;;15.32;3.85;;;23.30;99.90;;;;;;5115403;27;20192;-90
2023/05/25 11:32:28;;;;;;;16.52;3.90;;;23.30;99.90;;;;;;5106265;28;20189;-86
2023/05/25 11:34:56;;;;;;;11.32;3.58;;;23.30;99.90;;;;;;5082633;28;20225;-86
2023/05/25 11:37:27;;;;;;;11.75;4.00;;;23.20;99.90;;;;;;5083104;28;20232;-89
2023/05/25 11:39:54;;;;;;;16.52;3.97;;;23.20;99.90;;;;;;5069919;28;20208;-88
2023/05/25 11:42:23;;;;;;;13.95;3.70;;;23.20;99.90;;;;;;5088680;28;20181;-86
2023/05/25 11:44:50;;;;;;;25.83;4.35;;;23.20;99.90;;;;;;5084592;28;20213;-87
2023/05/25 11:47:22;;;;;;;18.35;4.65;;;23.20;99.90;;;;;;5087923;28;20227;-83
2023/05/25 11:49:48;;;;;;;16.52;4.47;;;23.20;99.90;;;;;;5071578;28;20271;-85
2023/05/25 11:52:17;;;;;;;19.33;4.00;;;23.20;99.90;;;;;;5081556;28;20495;-84
2023/05/25 11:54:45;;;;;;;17.35;3.80;;;23.20;99.90;;;;;;5089217;28;20301;-86
2023/05/25 11:57:25;;;;;;;20.35;3.90;;;23.20;99.90;;;;;;5097469;28;20567;-89
2023/05/25 12:00:00;;;;;;;17.83;3.90;;;23.20;99.90;;;;;;5069852;28;20193;-84
2023/05/25 12:02:27;;;;;;;16.45;3.55;;;23.20;99.90;;;;;;5081505;28;20177;-85
2023/05/25 12:04:58;;;;;;;16.90;4.28;;;23.30;99.90;;;;;;5089337;28;20424;-85
2023/05/25 12:07:27;;;;;;;14.00;3.63;;;23.20;99.90;;;;;;5084993;28;20185;-85
2023/05/25 12:10:15;;;;;;;22.10;4.57;;;23.20;99.90;;;;;;5086214;28;20181;-88
2023/05/25 12:12:51;;;;;;;20.67;4.22;;;23.20;99.90;;;;;;5085721;28;20208;-88
2023/05/25 12:15:23;;;;;;;16.38;3.53;;;23.20;99.90;;;;;;5104635;28;20208;-88
2023/05/25 12:17:51;;;;;;;18.63;4.10;;;23.20;99.90;;;;;;5083478;28;20209;-89
2023/05/25 12:20:18;;;;;;;21.63;4.28;;;23.20;99.90;;;;;;5073051;28;20565;-87
2023/05/25 12:22:46;;;;;;;15.55;3.88;;;23.30;99.90;;;;;;5121623;27;20537;-88
2023/05/25 12:25:17;;;;;;;19.52;3.72;;;23.30;99.90;;;;;;5103937;28;20636;-85
2023/05/25 12:27:44;;;;;;;12.48;3.97;;;23.30;99.90;;;;;;5104168;28;20196;-88
2023/05/25 12:30:11;;;;;;;13.60;3.92;;;23.40;99.90;;;;;;5070215;28;20221;-91
2023/05/25 12:32:58;;;;;;;22.95;4.30;;;23.30;99.90;;;;;;5073137;28;20280;-89
2023/05/25 12:35:25;;;;;;;23.88;5.13;;;23.30;99.90;;;;;;5106061;27;20189;-89
2023/05/25 12:38:16;;;;;;;21.15;4.20;;;23.30;99.90;;;;;;5070063;28;20802;-87
2023/05/25 12:40:43;;;;;;;13.00;4.00;;;23.30;99.90;;;;;;5086575;28;20189;-85
2023/05/25 12:43:10;;;;;;;12.65;4.13;;;23.30;99.90;;;;;;5085035;28;20630;-85
2023/05/25 12:45:43;;;;;;;17.60;4.85;;;23.30;99.90;;;;;;5124470;27;20182;-90
2023/05/25 12:48:10;;;;;;;15.13;4.35;;;23.30;99.90;;;;;;5082373;28;20525;-89